Time;durP1;ratioP1;P1;durP2;ratioP2;P2;SDS_P1;SDS_P2;PMS_P1;PMS_P2;Temp;Humidity;BMP_temperature;BMP_pressure;BME280_temperature;BME280_humidity;BME280_pressure;Samples;Min_cycle;Max_cycle;Signal;HPM_P1;HPM_P2
2023/06/21 00:02:05;;;;;;;;;;;;;;;25.09;50.69;99555.06;4476277;32;34970;-79
2023/06/21 00:04:34;;;;;;;;;;;;;;;25.17;49.96;99551.84;4476472;32;34494;-79
2023/06/21 00:07:07;;;;;;;;;;;;;;;25.11;50.10;99545.19;4482006;32;32711;-79
2023/06/21 00:09:36;;;;;;;;;;;;;;;25.04;50.66;99541.31;4476687;32;34095;-80
2023/06/21 00:12:04;;;;;;;;;;;;;;;25.09;50.97;99539.97;4476390;32;33909;-79
2023/06/21 00:14:35;;;;;;;;;;;;;;;24.89;50.89;99532.69;4476097;32;34071;-79
2023/06/21 00:17:04;;;;;;;;;;;;;;;24.90;50.64;99532.56;4482450;32;35480;-79
2023/06/21 00:19:32;;;;;;;;;;;;;;;24.95;51.12;99542.84;4479520;32;34246;-79
2023/06/21 00:22:02;;;;;;;;;;;;;;;24.87;50.49;99538.09;4478068;32;33618;-78
2023/06/21 00:24:31;;;;;;;;;;;;;;;24.83;50.75;99535.78;4478214;32;34102;-79
2023/06/21 00:26:59;;;;;;;;;;;;;;;24.74;51.35;99537.31;4477965;31;33834;-79
2023/06/21 00:29:28;;;;;;;;;;;;;;;24.84;51.01;99537.47;4483988;32;33546;-80
2023/06/21 00:31:59;;;;;;;;;;;;;;;24.75;51.10;99533.72;4479118;32;35056;-80
2023/06/21 00:34:28;;;;;;;;;;;;;;;24.60;51.55;99537.53;4478104;32;33810;-80
2023/06/21 00:36:58;;;;;;;;;;;;;;;24.67;51.37;99534.28;4478282;32;33590;-81
2023/06/21 00:39:27;;;;;;;;;;;;;;;24.58;51.42;99534.13;4484095;32;34652;-79
2023/06/21 00:41:55;;;;;;;;;;;;;;;24.62;51.51;99539.09;4478124;32;34377;-78
2023/06/21 00:44:24;;;;;;;;;;;;;;;24.74;51.19;99539.13;4467780;32;34414;-80
2023/06/21 00:46:53;;;;;;;;;;;;;;;24.68;50.89;99541.28;4478210;32;33017;-79
2023/06/21 00:49:23;;;;;;;;;;;;;;;24.57;51.33;99548.34;4483848;32;33953;-78
2023/06/21 00:51:57;;;;;;;;;;;;;;;24.63;50.88;99553.19;4482429;32;33676;-79
2023/06/21 00:54:27;;;;;;;;;;;;;;;24.41;50.16;99546.78;4478248;32;34800;-81
2023/06/21 00:56:57;;;;;;;;;;;;;;;24.46;50.46;99547.31;4477903;32;34072;-81
2023/06/21 00:59:30;;;;;;;;;;;;;;;24.41;50.77;99544.13;4477798;32;34653;-77
2023/06/21 01:02:00;;;;;;;;;;;;;;;24.44;50.29;99553.66;4483754;32;34084;-77
2023/06/21 01:04:32;;;;;;;;;;;;;;;24.41;50.38;99549.44;4478117;32;34374;-78
2023/06/21 01:07:03;;;;;;;;;;;;;;;24.43;50.13;99549.34;4476439;32;34041;-79
2023/06/21 01:09:33;;;;;;;;;;;;;;;24.37;50.34;99544.47;4462478;32;33880;-77
2023/06/21 01:12:03;;;;;;;;;;;;;;;24.36;50.78;99546.28;4462384;32;34197;-79
2023/06/21 01:14:33;;;;;;;;;;;;;;;24.43;50.88;99546.69;4467971;32;34186;-77
2023/06/21 01:17:01;;;;;;;;;;;;;;;24.45;50.72;99552.69;4462208;32;34094;-79
2023/06/21 01:19:38;;;;;;;;;;;;;;;24.41;50.81;99552.09;4462517;32;34841;-77
2023/06/21 01:22:08;;;;;;;;;;;;;;;24.45;50.44;99545.63;4462291;32;33906;-78
2023/06/21 01:24:40;;;;;;;;;;;;;;;23.97;50.89;99539.38;4467717;32;34796;-79
2023/06/21 01:27:27;;;;;;;;;;;;;;;24.35;50.36;99552.53;4461776;32;34074;-77
2023/06/21 01:29:58;;;;;;;;;;;;;;;24.42;50.24;99547.62;4461816;32;34226;-77
2023/06/21 01:32:27;;;;;;;;;;;;;;;24.43;50.43;99544.03;4462063;32;33309;-77
2023/06/21 01:34:57;;;;;;;;;;;;;;;24.47;50.03;99542.84;4461915;32;34473;-77
2023/06/21 01:37:26;;;;;;;;;;;;;;;24.38;50.62;99546.16;4467705;32;33632;-77
2023/06/21 01:39:55;;;;;;;;;;;;;;;24.41;49.95;99538.00;4462160;32;34682;-79
2023/06/21 01:42:24;;;;;;;;;;;;;;;24.35;50.06;99538.44;4462146;32;35655;-79
2023/06/21 01:44:52;;;;;;;;;;;;;;;24.35;49.75;99539.25;4462257;32;34008;-78
2023/06/21 01:47:22;;;;;;;;;;;;;;;24.39;49.67;99534.59;4471704;32;33133;-78
2023/06/21 01:49:51;;;;;;;;;;;;;;;24.33;49.78;99535.03;4483500;32;33593;-76
2023/06/21 01:52:20;;;;;;;;;;;;;;;24.36;49.80;99535.66;4477766;32;34069;-77
2023/06/21 01:54:50;;;;;;;;;;;;;;;24.43;49.66;99549.34;4477641;32;34240;-77
2023/06/21 01:57:18;;;;;;;;;;;;;;;24.38;49.62;99548.78;4475637;32;33223;-77
2023/06/21 01:59:50;;;;;;;;;;;;;;;24.41;49.53;99551.25;4467410;32;33959;-77
2023/06/21 02:02:18;;;;;;;;;;;;;;;24.46;49.29;99549.97;4462208;32;35171;-79
2023/06/21 02:04:49;;;;;;;;;;;;;;;24.37;49.24;99553.25;4462073;32;34312;-77
2023/06/21 02:07:18;;;;;;;;;;;;;;;24.40;49.14;99549.53;4461959;32;32662;-79
2023/06/21 02:09:46;;;;;;;;;;;;;;;24.44;49.14;99556.31;4467811;32;34274;-78
2023/06/21 02:12:17;;;;;;;;;;;;;;;24.44;49.02;99559.81;4466334;32;34857;-78
2023/06/21 02:14:45;;;;;;;;;;;;;;;24.44;49.01;99558.97;4461858;32;34196;-78
2023/06/21 02:17:15;;;;;;;;;;;;;;;24.40;49.17;99555.69;4461962;32;33879;-78
2023/06/21 02:19:43;;;;;;;;;;;;;;;24.30;49.68;99553.81;4462015;32;34870;-77
2023/06/21 02:22:15;;;;;;;;;;;;;;;24.32;49.72;99552.75;4467580;32;33993;-79
2023/06/21 02:24:44;;;;;;;;;;;;;;;24.40;49.55;99562.78;4461722;32;33949;-79
2023/06/21 02:27:17;;;;;;;;;;;;;;;24.40;49.62;99560.97;4475417;31;32526;-78
2023/06/21 02:29:45;;;;;;;;;;;;;;;24.37;50.16;99563.03;4478769;32;33768;-77
2023/06/21 02:32:15;;;;;;;;;;;;;;;24.33;50.05;99559.75;4483193;32;35160;-79
2023/06/21 02:34:44;;;;;;;;;;;;;;;24.21;50.04;99561.50;4477302;32;34791;-79
2023/06/21 02:37:14;;;;;;;;;;;;;;;24.29;49.74;99547.69;4477373;32;33683;-79
2023/06/21 02:39:44;;;;;;;;;;;;;;;24.34;49.32;99550.00;4477042;32;33731;-79
2023/06/21 02:42:13;;;;;;;;;;;;;;;24.20;49.87;99545.69;4476651;32;35171;-78
2023/06/21 02:44:44;;;;;;;;;;;;;;;24.36;49.29;99550.75;4467140;32;34515;-78
2023/06/21 02:47:13;;;;;;;;;;;;;;;24.29;49.63;99547.69;4461793;32;34055;-77
2023/06/21 02:49:42;;;;;;;;;;;;;;;24.27;49.46;99547.78;4461560;32;35294;-79
2023/06/21 02:52:11;;;;;;;;;;;;;;;24.35;49.44;99546.38;4461628;32;33999;-77
2023/06/21 02:54:41;;;;;;;;;;;;;;;24.25;49.83;99540.91;4467203;32;34371;-78
2023/06/21 02:57:10;;;;;;;;;;;;;;;24.35;49.40;99543.72;4461495;32;35686;-76
2023/06/21 02:59:38;;;;;;;;;;;;;;;24.40;49.40;99546.88;4464291;32;34265;-77
2023/06/21 03:02:07;;;;;;;;;;;;;;;24.48;49.30;99556.03;4461734;32;34046;-78
2023/06/21 03:04:36;;;;;;;;;;;;;;;24.37;49.90;99552.41;4461183;32;34745;-79
2023/06/21 03:07:07;;;;;;;;;;;;;;;24.42;49.87;99544.97;4474133;32;34457;-77
2023/06/21 03:09:37;;;;;;;;;;;;;;;24.41;50.01;99546.78;4477091;32;34916;-78
2023/06/21 03:12:08;;;;;;;;;;;;;;;24.40;49.96;99545.06;4477374;32;34581;-79
2023/06/21 03:14:38;;;;;;;;;;;;;;;24.48;49.92;99547.22;4477424;32;33700;-78
2023/06/21 03:17:09;;;;;;;;;;;;;;;24.49;50.27;99546.25;4482743;32;32985;-77
2023/06/21 03:19:38;;;;;;;;;;;;;;;24.53;50.17;99545.06;4477288;32;34678;-76
2023/06/21 03:22:08;;;;;;;;;;;;;;;24.49;50.50;99547.09;4477222;32;34940;-78
2023/06/21 03:24:36;;;;;;;;;;;;;;;24.49;50.72;99549.75;4477143;32;34196;-78
2023/06/21 03:27:06;;;;;;;;;;;;;;;24.60;50.55;99553.44;4477183;32;33464;-78
2023/06/21 03:29:36;;;;;;;;;;;;;;;24.72;50.23;99559.63;4482131;32;33599;-79
2023/06/21 03:32:05;;;;;;;;;;;;;;;24.73;50.19;99553.38;4477254;32;34185;-79
2023/06/21 03:34:35;;;;;;;;;;;;;;;24.66;50.33;99551.16;4477422;32;33903;-77
2023/06/21 03:37:03;;;;;;;;;;;;;;;24.75;50.80;99543.50;4476548;32;33402;-77
2023/06/21 03:39:32;;;;;;;;;;;;;;;24.67;51.02;99544.06;4482873;32;33852;-79
2023/06/21 03:42:01;;;;;;;;;;;;;;;24.72;51.31;99541.03;4476761;32;33893;-77
2023/06/21 03:44:30;;;;;;;;;;;;;;;24.69;51.34;99548.31;4476796;32;34304;-79
2023/06/21 03:47:01;;;;;;;;;;;;;;;24.73;51.51;99542.75;4476944;32;34545;-78
2023/06/21 03:49:30;;;;;;;;;;;;;;;24.88;51.67;99542.44;4478979;32;34314;-77
2023/06/21 03:52:00;;;;;;;;;;;;;;;24.84;52.33;99541.00;4481535;32;34173;-77
2023/06/21 03:54:28;;;;;;;;;;;;;;;24.84;52.73;99546.31;4476622;32;33805;-77
2023/06/21 03:56:57;;;;;;;;;;;;;;;24.87;53.13;99545.22;4476966;32;33199;-77
2023/06/21 03:59:26;;;;;;;;;;;;;;;24.85;53.01;99542.69;4476755;32;34656;-79
2023/06/21 04:01:55;;;;;;;;;;;;;;;25.01;52.75;99549.47;4482437;32;33926;-79
2023/06/21 04:04:26;;;;;;;;;;;;;;;24.94;52.90;99553.59;4476944;32;33466;-79
2023/06/21 04:06:55;;;;;;;;;;;;;;;24.97;52.78;99548.88;4475006;32;32911;-77
2023/06/21 04:09:24;;;;;;;;;;;;;;;25.04;52.61;99546.63;4460870;32;34220;-79
2023/06/21 04:11:53;;;;;;;;;;;;;;;25.09;52.07;99550.59;4466396;32;34203;-78
2023/06/21 04:14:22;;;;;;;;;;;;;;;24.75;52.13;99554.09;4460832;32;34177;-79
2023/06/21 04:16:51;;;;;;;;;;;;;;;25.19;51.26;99564.06;4460686;32;33963;-79
2023/06/21 04:19:20;;;;;;;;;;;;;;;25.65;51.70;99568.47;4460758;32;34104;-76
2023/06/21 04:21:50;;;;;;;;;;;;;;;26.24;49.25;99569.22;4460708;32;33970;-79
2023/06/21 04:24:19;;;;;;;;;;;;;;;26.81;48.53;99573.47;4466607;32;34450;-79
2023/06/21 04:26:49;;;;;;;;;;;;;;;27.29;47.17;99582.84;4460254;32;33372;-79
2023/06/21 04:29:20;;;;;;;;;;;;;;;27.74;45.40;99588.72;4460999;32;34117;-77
2023/06/21 04:31:52;;;;;;;;;;;;;;;27.85;44.67;99596.63;4460730;32;34300;-79
2023/06/21 04:34:20;;;;;;;;;;;;;;;28.24;42.92;99596.78;4466305;32;34097;-79
2023/06/21 04:36:50;;;;;;;;;;;;;;;28.59;42.35;99603.53;4460564;32;34081;-77
2023/06/21 04:39:20;;;;;;;;;;;;;;;29.06;40.88;99605.53;4422965;32;1194042;-79
2023/06/21 04:41:51;;;;;;;;;;;;;;;29.23;40.15;99610.19;4467878;32;35083;-77
2023/06/21 04:44:20;;;;;;;;;;;;;;;29.13;40.67;99620.03;4461794;32;33988;-77
2023/06/21 04:46:49;;;;;;;;;;;;;;;29.12;40.52;99607.66;4465971;32;34316;-80
2023/06/21 04:49:17;;;;;;;;;;;;;;;28.76;41.14;99610.00;4460614;32;34520;-77
2023/06/21 04:51:47;;;;;;;;;;;;;;;29.12;40.83;99613.84;4470299;32;34777;-82
2023/06/21 04:54:16;;;;;;;;;;;;;;;28.87;40.78;99607.19;4476297;32;33785;-77
2023/06/21 04:56:45;;;;;;;;;;;;;;;28.11;42.86;99604.19;4481677;32;32585;-78
2023/06/21 04:59:16;;;;;;;;;;;;;;;28.47;42.35;99608.12;4461381;32;34006;-78
2023/06/21 05:01:45;;;;;;;;;;;;;;;28.53;42.52;99604.06;4475959;32;33794;-77
2023/06/21 05:04:14;;;;;;;;;;;;;;;28.69;42.15;99598.19;4477557;32;35122;-79
2023/06/21 05:06:43;;;;;;;;;;;;;;;29.02;40.16;99607.66;4478434;32;34168;-77
2023/06/21 05:09:12;;;;;;;;;;;;;;;29.87;38.92;99608.69;4468016;32;34144;-79
2023/06/21 05:11:42;;;;;;;;;;;;;;;29.42;39.66;99597.78;4462145;32;34005;-77
2023/06/21 05:14:11;;;;;;;;;;;;;;;30.12;38.65;99593.78;4462439;32;34176;-78
2023/06/21 05:16:40;;;;;;;;;;;;;;;29.99;38.55;99586.09;4462692;32;33262;-77
2023/06/21 05:19:09;;;;;;;;;;;;;;;30.11;38.53;99586.75;4467894;32;34161;-78
2023/06/21 05:21:38;;;;;;;;;;;;;;;30.25;38.34;99595.25;4462234;32;33670;-77
2023/06/21 05:24:07;;;;;;;;;;;;;;;30.28;38.21;99598.53;4462146;32;34106;-77
2023/06/21 05:26:36;;;;;;;;;;;;;;;30.31;38.20;99611.59;4473699;31;33313;-79
2023/06/21 05:29:06;;;;;;;;;;;;;;;29.90;39.67;99613.72;4472935;32;34259;-79
2023/06/21 05:31:37;;;;;;;;;;;;;;;29.53;40.50;99611.84;4464895;32;35111;-79
2023/06/21 05:34:06;;;;;;;;;;;;;;;29.76;39.86;99620.37;4462088;32;34174;-80
2023/06/21 05:36:35;;;;;;;;;;;;;;;29.83;39.96;99614.47;4462279;32;33992;-79
2023/06/21 05:39:04;;;;;;;;;;;;;;;29.44;40.83;99610.03;4477175;32;34060;-80
2023/06/21 05:41:33;;;;;;;;;;;;;;;29.87;39.27;99608.69;4483064;32;34253;-78
2023/06/21 05:44:04;;;;;;;;;;;;;;;29.59;40.06;99609.56;4477163;32;34655;-78
2023/06/21 05:46:35;;;;;;;;;;;;;;;29.99;39.23;99612.03;4477667;32;33429;-78
2023/06/21 05:49:03;;;;;;;;;;;;;;;29.76;39.15;99601.66;4477514;32;34144;-78
2023/06/21 05:51:32;;;;;;;;;;;;;;;29.86;38.80;99606.97;4483448;32;34265;-79
2023/06/21 05:54:01;;;;;;;;;;;;;;;29.37;39.71;99600.88;4477340;32;34106;-78
2023/06/21 05:56:31;;;;;;;;;;;;;;;29.73;38.73;99609.97;4477267;32;34255;-79
2023/06/21 05:59:00;;;;;;;;;;;;;;;29.61;39.28;99612.94;4477411;32;33957;-80
2023/06/21 06:01:30;;;;;;;;;;;;;;;29.80;39.30;99622.78;4477495;32;33925;-80
2023/06/21 06:04:00;;;;;;;;;;;;;;;29.70;39.48;99628.16;4483001;32;34369;-80
2023/06/21 06:06:34;;;;;;;;;;;;;;;29.53;39.31;99625.19;4468661;32;32598;-79
2023/06/21 06:09:04;;;;;;;;;;;;;;;29.00;40.41;99620.28;4463516;32;34383;-80
2023/06/21 06:11:33;;;;;;;;;;;;;;;28.67;40.49;99621.50;4461959;32;34212;-78
2023/06/21 06:14:02;;;;;;;;;;;;;;;28.28;41.05;99618.72;4467118;32;35119;-78
2023/06/21 06:16:30;;;;;;;;;;;;;;;28.08;41.89;99612.47;4461713;32;34411;-78
2023/06/21 06:19:00;;;;;;;;;;;;;;;28.04;41.92;99606.56;4461780;32;33462;-78
2023/06/21 06:21:29;;;;;;;;;;;;;;;28.34;41.74;99614.66;4461861;32;34999;-80
2023/06/21 06:23:59;;;;;;;;;;;;;;;28.60;41.98;99613.22;4461563;32;34157;-77
2023/06/21 06:26:28;;;;;;;;;;;;;;;28.63;42.25;99606.75;4466380;32;34092;-78
2023/06/21 06:28:56;;;;;;;;;;;;;;;28.38;42.55;99600.91;4461526;32;35008;-77
2023/06/21 06:31:25;;;;;;;;;;;;;;;28.61;42.56;99606.03;4461538;32;33637;-78
2023/06/21 06:34:01;;;;;;;;;;;;;;;28.68;41.83;99602.69;4461390;32;33751;-78
2023/06/21 06:36:30;;;;;;;;;;;;;;;28.67;42.13;99600.16;4467476;32;32687;-77
2023/06/21 06:38:59;;;;;;;;;;;;;;;28.08;42.98;99607.16;4461423;32;34315;-79
2023/06/21 06:41:27;;;;;;;;;;;;;;;28.41;42.55;99603.28;4470420;32;34383;-78
2023/06/21 06:43:59;;;;;;;;;;;;;;;28.48;42.80;99609.81;4473362;32;34614;-79
2023/06/21 06:46:28;;;;;;;;;;;;;;;28.63;42.12;99599.59;4477444;32;33288;-79
2023/06/21 06:48:57;;;;;;;;;;;;;;;28.79;41.80;99609.72;4482583;32;34528;-78
2023/06/21 06:51:27;;;;;;;;;;;;;;;28.80;41.90;99619.44;4472668;32;33678;-80
2023/06/21 06:53:55;;;;;;;;;;;;;;;28.72;41.93;99613.94;4474837;32;35109;-79
2023/06/21 06:56:24;;;;;;;;;;;;;;;28.60;42.02;99620.37;4471775;32;33257;-77
2023/06/21 06:58:53;;;;;;;;;;;;;;;28.28;42.22;99616.06;4481630;32;33638;-78
2023/06/21 07:01:22;;;;;;;;;;;;;;;28.66;42.17;99614.50;4472570;32;33649;-79
2023/06/21 07:03:51;;;;;;;;;;;;;;;28.56;42.20;99611.81;4476730;32;34117;-78
2023/06/21 07:06:21;;;;;;;;;;;;;;;28.83;42.07;99616.47;4472528;32;32977;-79
2023/06/21 07:08:52;;;;;;;;;;;;;;;29.23;41.35;99620.03;4479119;32;34795;-78
2023/06/21 07:11:20;;;;;;;;;;;;;;;28.52;42.43;99620.22;4482954;32;34981;-78
2023/06/21 07:13:49;;;;;;;;;;;;;;;28.39;43.11;99626.63;4477073;32;34051;-78
2023/06/21 07:16:18;;;;;;;;;;;;;;;29.02;41.73;99620.13;4476778;32;33681;-79
2023/06/21 07:18:47;;;;;;;;;;;;;;;29.14;42.09;99619.06;4469032;32;34741;-78
2023/06/21 07:21:17;;;;;;;;;;;;;;;29.57;41.42;99625.75;4467113;32;34033;-78
2023/06/21 07:23:49;;;;;;;;;;;;;;;29.67;40.94;99629.28;4462936;32;34106;-78
2023/06/21 07:26:19;;;;;;;;;;;;;;;29.90;40.46;99624.41;4477643;32;34159;-79
2023/06/21 07:28:51;;;;;;;;;;;;;;;29.74;40.35;99617.03;4472862;32;33913;-80
2023/06/21 07:31:19;;;;;;;;;;;;;;;29.75;40.86;99616.03;4482365;32;34849;-79
2023/06/21 07:33:48;;;;;;;;;;;;;;;30.09;40.72;99611.97;4478509;32;33342;-79
2023/06/21 07:36:18;;;;;;;;;;;;;;;29.83;41.14;99617.97;4476912;32;33918;-79
2023/06/21 07:38:48;;;;;;;;;;;;;;;30.04;40.43;99612.41;4476037;32;34864;-79
2023/06/21 07:41:22;;;;;;;;;;;;;;;30.22;40.25;99615.13;4476693;32;34273;-80
2023/06/21 07:43:50;;;;;;;;;;;;;;;30.24;40.81;99613.16;4477343;32;34500;-80
2023/06/21 07:46:19;;;;;;;;;;;;;;;30.19;41.02;99605.56;4472309;32;33340;-78
2023/06/21 07:48:48;;;;;;;;;;;;;;;29.81;42.06;99608.41;4476222;32;33717;-78
2023/06/21 07:51:17;;;;;;;;;;;;;;;30.15;41.21;99603.34;4476199;32;35109;-78
2023/06/21 07:53:46;;;;;;;;;;;;;;;29.74;42.27;99603.66;4479880;32;34543;-78
2023/06/21 07:56:16;;;;;;;;;;;;;;;30.09;41.91;99598.59;4462558;32;33370;-79
2023/06/21 07:58:47;;;;;;;;;;;;;;;30.57;41.31;99586.81;4475099;32;33153;-78
2023/06/21 08:01:16;;;;;;;;;;;;;;;30.48;41.74;99588.53;4474224;32;34171;-78
2023/06/21 08:03:45;;;;;;;;;;;;;;;31.20;40.49;99592.09;4476523;32;34960;-79
2023/06/21 08:06:14;;;;;;;;;;;;;;;30.80;41.21;99612.13;4481555;32;34137;-78
2023/06/21 08:08:42;;;;;;;;;;;;;;;31.30;39.50;99616.12;4471907;32;33431;-80
2023/06/21 08:11:11;;;;;;;;;;;;;;;31.24;39.52;99611.38;4476277;32;33701;-79
2023/06/21 08:13:40;;;;;;;;;;;;;;;31.54;39.59;99614.66;4476079;32;34121;-80
2023/06/21 08:16:10;;;;;;;;;;;;;;;31.08;39.73;99619.31;4481543;32;33536;-78
2023/06/21 08:18:38;;;;;;;;;;;;;;;31.53;39.13;99623.69;4476083;32;34821;-80
2023/06/21 08:21:08;;;;;;;;;;;;;;;31.41;39.34;99631.16;4477621;32;33836;-79
2023/06/21 08:23:36;;;;;;;;;;;;;;;31.68;39.13;99627.50;4476395;32;34150;-78
2023/06/21 08:26:05;;;;;;;;;;;;;;;32.20;38.79;99632.84;4475963;32;33642;-80
2023/06/21 08:28:34;;;;;;;;;;;;;;;32.77;37.93;99631.38;4482026;32;34009;-78
2023/06/21 08:31:03;;;;;;;;;;;;;;;33.11;38.09;99634.81;4464335;32;34016;-79
2023/06/21 08:33:33;;;;;;;;;;;;;;;33.37;37.24;99641.88;4473785;32;34239;-80
2023/06/21 08:36:02;;;;;;;;;;;;;;;33.48;36.27;99641.53;4473887;32;35451;-79
2023/06/21 08:38:30;;;;;;;;;;;;;;;33.17;36.10;99640.53;4480673;32;34189;-78
2023/06/21 08:41:00;;;;;;;;;;;;;;;33.47;36.72;99639.84;4475949;32;34164;-79
2023/06/21 08:43:29;;;;;;;;;;;;;;;33.55;37.21;99642.53;4476416;32;34389;-79
2023/06/21 08:45:57;;;;;;;;;;;;;;;33.56;36.63;99649.63;4476200;32;34491;-78
2023/06/21 08:48:27;;;;;;;;;;;;;;;33.14;36.06;99642.53;4481210;32;34596;-78
2023/06/21 08:50:56;;;;;;;;;;;;;;;33.37;36.50;99658.03;4479703;32;33449;-80
2023/06/21 08:53:26;;;;;;;;;;;;;;;33.56;35.43;99659.53;4475837;32;33900;-80
2023/06/21 08:55:55;;;;;;;;;;;;;;;33.61;37.13;99665.25;4468313;32;32933;-79
2023/06/21 08:58:24;;;;;;;;;;;;;;;33.65;36.33;99665.75;4460387;32;34700;-78
2023/06/21 09:00:53;;;;;;;;;;;;;;;33.68;36.50;99665.41;4465946;32;34329;-80
2023/06/21 09:03:24;;;;;;;;;;;;;;;33.24;36.58;99657.66;4467197;32;33955;-78
2023/06/21 09:05:54;;;;;;;;;;;;;;;33.61;36.91;99665.25;4475965;32;32682;-79
2023/06/21 09:08:24;;;;;;;;;;;;;;;33.57;38.02;99662.06;4475684;32;35234;-79
2023/06/21 09:10:53;;;;;;;;;;;;;;;33.67;37.81;99661.88;4481525;32;34405;-80
2023/06/21 09:13:23;;;;;;;;;;;;;;;33.60;37.39;99671.63;4476130;32;34600;-79
2023/06/21 09:15:51;;;;;;;;;;;;;;;33.65;38.78;99671.13;4475775;32;33065;-80
2023/06/21 09:18:20;;;;;;;;;;;;;;;33.70;38.27;99666.91;4478494;32;34343;-79
2023/06/21 09:20:49;;;;;;;;;;;;;;;33.66;38.79;99667.41;4475965;32;33906;-79
2023/06/21 09:23:17;;;;;;;;;;;;;;;33.51;39.34;99672.63;4481409;32;34044;-79
2023/06/21 09:25:48;;;;;;;;;;;;;;;33.65;38.81;99666.59;4474768;32;32979;-79
2023/06/21 09:28:17;;;;;;;;;;;;;;;33.71;40.01;99668.63;4476055;31;33704;-79
2023/06/21 09:30:45;;;;;;;;;;;;;;;33.69;38.30;99667.94;4475929;32;33959;-79
2023/06/21 09:33:15;;;;;;;;;;;;;;;33.67;38.81;99669.12;4481238;32;32858;-79
2023/06/21 09:35:46;;;;;;;;;;;;;;;33.45;37.17;99671.44;4466585;32;33707;-79
2023/06/21 09:38:24;;;;;;;;;;;;;;;33.36;37.98;99665.22;4468283;32;33816;-78
2023/06/21 09:40:55;;;;;;;;;;;;;;;33.44;38.67;99669.78;4468634;32;33617;-79
2023/06/21 09:43:23;;;;;;;;;;;;;;;33.50;38.22;99673.63;4471598;32;33680;-80
2023/06/21 09:45:58;;;;;;;;;;;;;;;33.49;39.06;99675.50;4481238;32;33758;-79
2023/06/21 09:48:27;;;;;;;;;;;;;;;33.41;38.70;99680.84;4477415;32;33698;-78
2023/06/21 09:50:56;;;;;;;;;;;;;;;33.49;38.82;99686.25;4474697;32;33710;-78
2023/06/21 09:53:25;;;;;;;;;;;;;;;33.41;38.68;99690.78;4472935;32;34883;-78
2023/06/21 09:55:55;;;;;;;;;;;;;;;33.37;38.95;99695.66;4467489;32;34049;-78
2023/06/21 09:58:24;;;;;;;;;;;;;;;33.47;38.87;99692.81;4458680;32;33753;-79
2023/06/21 10:00:54;;;;;;;;;;;;;;;33.41;39.00;99690.78;4465444;32;34972;-79
2023/06/21 10:03:24;;;;;;;;;;;;;;;33.52;39.70;99693.16;4468792;32;33989;-78
2023/06/21 10:05:54;;;;;;;;;;;;;;;33.52;39.52;99688.59;4463038;32;33246;-78
2023/06/21 10:08:23;;;;;;;;;;;;;;;33.39;40.03;99684.72;4472324;32;34211;-80
2023/06/21 10:10:53;;;;;;;;;;;;;;;33.22;39.91;99683.88;4471504;32;34009;-80
2023/06/21 10:13:28;;;;;;;;;;;;;;;33.29;39.88;99682.19;4463859;32;34633;-80
2023/06/21 10:15:57;;;;;;;;;;;;;;;33.70;39.09;99682.22;4467215;32;33585;-79
2023/06/21 10:18:26;;;;;;;;;;;;;;;33.67;39.46;99685.25;4474819;32;34121;-78
2023/06/21 10:20:57;;;;;;;;;;;;;;;33.75;39.23;99679.84;4469360;32;34244;-78
2023/06/21 10:23:27;;;;;;;;;;;;;;;33.97;39.02;99687.25;4459949;32;34927;-80
2023/06/21 10:26:00;;;;;;;;;;;;;;;34.08;37.66;99683.34;4459172;32;33895;-78
2023/06/21 10:28:30;;;;;;;;;;;;;;;34.12;38.01;99684.72;4459371;32;33915;-80
2023/06/21 10:30:59;;;;;;;;;;;;;;;34.03;37.76;99683.00;4465450;32;36344;-79
2023/06/21 10:33:29;;;;;;;;;;;;;;;34.08;37.05;99682.50;4470854;32;33737;-80
2023/06/21 10:36:00;;;;;;;;;;;;;;;34.07;37.83;99686.19;4466285;32;32929;-79
2023/06/21 10:38:31;;;;;;;;;;;;;;;34.08;37.90;99694.13;4460780;32;34222;-78
2023/06/21 10:41:00;;;;;;;;;;;;;;;34.07;37.34;99696.94;4472151;32;34628;-79
2023/06/21 10:43:31;;;;;;;;;;;;;;;34.01;38.08;99698.50;4466048;32;34367;-79
2023/06/21 10:45:59;;;;;;;;;;;;;;;34.03;37.78;99696.47;4464727;32;33633;-78
2023/06/21 10:48:28;;;;;;;;;;;;;;;34.05;37.73;99693.63;4464123;32;33288;-78
2023/06/21 10:50:57;;;;;;;;;;;;;;;34.21;37.65;99693.59;4467576;32;35462;-79
2023/06/21 10:53:27;;;;;;;;;;;;;;;34.13;38.45;99697.13;4471483;32;33708;-79
2023/06/21 10:55:56;;;;;;;;;;;;;;;34.16;38.80;99695.97;4471062;32;32289;-79
2023/06/21 10:58:25;;;;;;;;;;;;;;;33.99;37.81;99693.25;4473815;32;34491;-79
2023/06/21 11:00:55;;;;;;;;;;;;;;;34.29;39.76;99701.66;4459553;32;33688;-80
2023/06/21 11:03:25;;;;;;;;;;;;;;;34.29;37.48;99698.97;4465035;32;35630;-79
2023/06/21 11:05:55;;;;;;;;;;;;;;;34.34;37.77;99699.28;4458616;32;34440;-80
2023/06/21 11:08:32;;;;;;;;;;;;;;;34.25;37.84;99691.41;4467717;32;33092;-80
2023/06/21 11:11:00;;;;;;;;;;;;;;;34.10;38.50;99697.50;4465136;32;33862;-78
2023/06/21 11:13:36;;;;;;;;;;;;;;;34.00;38.77;99696.81;4467635;32;34464;-79
2023/06/21 11:16:11;;;;;;;;;;;;;;;33.61;39.35;99688.63;4468248;32;32349;-79
2023/06/21 11:18:43;;;;;;;;;;;;;;;33.61;39.74;99688.63;4460576;32;34744;-80
2023/06/21 11:21:12;;;;;;;;;;;;;;;33.30;39.76;99689.28;4466413;32;35007;-78
2023/06/21 11:23:51;;;;;;;;;;;;;;;33.34;39.63;99686.06;4459394;32;34940;-79
2023/06/21 11:26:24;;;;;;;;;;;;;;;33.33;39.40;99683.56;4468250;32;33618;-78
2023/06/21 11:28:54;;;;;;;;;;;;;;;33.30;39.68;99683.91;4457541;32;32786;-78
2023/06/21 11:31:25;;;;;;;;;;;;;;;33.24;40.21;99681.87;4467576;32;33876;-78
2023/06/21 11:33:54;;;;;;;;;;;;;;;33.52;40.02;99677.84;4459261;32;34877;-79
2023/06/21 11:36:27;;;;;;;;;;;;;;;33.68;40.25;99693.12;4469356;32;33034;-79
2023/06/21 11:39:00;;;;;;;;;;;;;;;33.82;39.37;99680.84;4470583;32;33288;-80
2023/06/21 11:41:51;;;;;;;;;;;;;;;34.37;37.79;99685.44;4472036;32;34603;-78
2023/06/21 11:44:21;;;;;;;;;;;;;;;34.52;37.45;99674.78;4466789;32;34963;-78
2023/06/21 11:46:52;;;;;;;;;;;;;;;34.95;37.00;99675.25;4468433;32;32366;-79
2023/06/21 11:49:21;;;;;;;;;;;;;;;35.18;36.78;99667.22;4467621;32;33194;-79
2023/06/21 11:51:50;;;;;;;;;;;;;;;34.98;36.57;99665.97;4465093;32;34461;-78
2023/06/21 11:54:31;;;;;;;;;;;;;;;35.62;35.49;99666.53;4477571;32;33836;-80
2023/06/21 11:57:00;;;;;;;;;;;;;;;35.46;35.43;99655.84;4474690;32;32950;-79
2023/06/21 11:59:29;;;;;;;;;;;;;;;35.79;35.91;99661.81;4476616;32;34850;-79
2023/06/21 12:02:04;;;;;;;;;;;;;;;36.00;34.44;99661.06;4476307;32;33595;-79
2023/06/21 12:04:32;;;;;;;;;;;;;;;36.10;34.59;99661.66;4481687;32;34503;-79
2023/06/21 12:07:01;;;;;;;;;;;;;;;36.41;34.91;99652.50;4474748;32;33207;-79
2023/06/21 12:09:31;;;;;;;;;;;;;;;36.75;34.67;99651.03;4460850;32;35328;-78
2023/06/21 12:12:00;;;;;;;;;;;;;;;36.90;33.52;99656.44;4459859;32;33891;-79
2023/06/21 12:14:28;;;;;;;;;;;;;;;37.00;32.40;99643.44;4460501;32;34381;-80
2023/06/21 12:16:56;;;;;;;;;;;;;;;36.97;31.99;99642.97;4465900;32;33674;-79
2023/06/21 12:19:27;;;;;;;;;;;;;;;37.27;32.42;99635.59;4460662;32;33831;-78
2023/06/21 12:21:59;;;;;;;;;;;;;;;37.49;30.61;99636.38;4460199;32;35668;-80
2023/06/21 12:24:28;;;;;;;;;;;;;;;37.56;30.67;99642.72;4471049;32;33862;-78
2023/06/21 12:26:58;;;;;;;;;;;;;;;37.73;29.58;99637.84;4481697;32;33155;-78
2023/06/21 12:29:27;;;;;;;;;;;;;;;37.81;29.19;99642.25;4479132;32;34419;-78
2023/06/21 12:31:57;;;;;;;;;;;;;;;37.65;29.47;99638.84;4476390;32;33748;-79
2023/06/21 12:34:27;;;;;;;;;;;;;;;37.84;30.70;99640.00;4476186;32;36203;-79
2023/06/21 12:36:58;;;;;;;;;;;;;;;38.22;27.42;99653.13;4476246;32;33437;-80
2023/06/21 12:39:27;;;;;;;;;;;;;;;38.19;27.85;99650.84;4481919;32;33565;-78
2023/06/21 12:41:59;;;;;;;;;;;;;;;38.30;28.12;99649.41;4476047;32;34184;-79
2023/06/21 12:44:30;;;;;;;;;;;;;;;37.89;28.81;99650.22;4461063;32;34734;-79
2023/06/21 12:47:01;;;;;;;;;;;;;;;38.26;27.79;99648.16;4460617;32;34163;-79
2023/06/21 12:49:30;;;;;;;;;;;;;;;38.76;26.92;99656.91;4466007;32;34918;-78
2023/06/21 12:52:02;;;;;;;;;;;;;;;39.07;27.99;99644.69;4460237;32;33619;-78
2023/06/21 12:54:30;;;;;;;;;;;;;;;38.98;27.15;99636.78;4460219;32;34636;-78
2023/06/21 12:57:00;;;;;;;;;;;;;;;38.80;27.40;99637.31;4461636;32;33236;-78
2023/06/21 12:59:29;;;;;;;;;;;;;;;39.21;27.47;99632.81;4460200;32;33747;-77
2023/06/21 13:01:57;;;;;;;;;;;;;;;39.01;27.10;99633.63;4465916;32;34120;-80